sensor_id;sensor_type;location;lat;lon;timestamp;pressure;altitude;pressure_sealevel;temperature;humidity
79645;BME280;69117;47.148;18.954;2023-10-08T00:00:46;100734.63;;;17.88;100.00
79645;BME280;69117;47.148;18.954;2023-10-08T00:03:51;100741.91;;;17.94;100.00
79645;BME280;69117;47.148;18.954;2023-10-08T00:06:54;100746.28;;;17.95;100.00
79645;BME280;69117;47.148;18.954;2023-10-08T00:09:56;100724.78;;;17.89;100.00
79645;BME280;69117;47.148;18.954;2023-10-08T00:12:58;100737.22;;;17.96;100.00
79645;BME280;69117;47.148;18.954;2023-10-08T00:16:00;100739.72;;;17.98;100.00
79645;BME280;69117;47.148;18.954;2023-10-08T00:19:01;100736.84;;;17.99;100.00
79645;BME280;69117;47.148;18.954;2023-10-08T00:22:11;100715.47;;;17.84;100.00
79645;BME280;69117;47.148;18.954;2023-10-08T00:25:14;100716.13;;;17.87;100.00
79645;BME280;69117;47.148;18.954;2023-10-08T00:28:17;100718.59;;;17.88;100.00
79645;BME280;69117;47.148;18.954;2023-10-08T00:31:19;100714.72;;;17.91;100.00
79645;BME280;69117;47.148;18.954;2023-10-08T00:34:25;100717.75;;;17.88;100.00
79645;BME280;69117;47.148;18.954;2023-10-08T00:37:29;100700.63;;;17.82;100.00
79645;BME280;69117;47.148;18.954;2023-10-08T00:40:41;100712.31;;;17.81;100.00
79645;BME280;69117;47.148;18.954;2023-10-08T00:43:48;100711.66;;;17.79;100.00
79645;BME280;69117;47.148;18.954;2023-10-08T00:46:50;100722.88;;;17.74;100.00
79645;BME280;69117;47.148;18.954;2023-10-08T00:49:52;100718.94;;;17.70;100.00
79645;BME280;69117;47.148;18.954;2023-10-08T00:53:09;100709.59;;;17.66;100.00
79645;BME280;69117;47.148;18.954;2023-10-08T00:56:28;100707.91;;;17.50;100.00
79645;BME280;69117;47.148;18.954;2023-10-08T00:59:48;100709.47;;;17.45;100.00
79645;BME280;69117;47.148;18.954;2023-10-08T01:02:57;100715.22;;;17.33;100.00
79645;BME280;69117;47.148;18.954;2023-10-08T01:06:03;100713.22;;;17.35;100.00
79645;BME280;69117;47.148;18.954;2023-10-08T01:09:05;100720.66;;;17.25;100.00
79645;BME280;69117;47.148;18.954;2023-10-08T01:12:21;100718.69;;;17.19;100.00
79645;BME280;69117;47.148;18.954;2023-10-08T01:15:27;100719.78;;;17.10;100.00
79645;BME280;69117;47.148;18.954;2023-10-08T01:18:37;100713.09;;;17.06;100.00
79645;BME280;69117;47.148;18.954;2023-10-08T01:21:44;100701.44;;;17.07;100.00
79645;BME280;69117;47.148;18.954;2023-10-08T01:24:46;100690.47;;;17.02;100.00
79645;BME280;69117;47.148;18.954;2023-10-08T01:27:57;100689.38;;;16.88;100.00
79645;BME280;69117;47.148;18.954;2023-10-08T01:31:16;100694.28;;;16.76;100.00
79645;BME280;69117;47.148;18.954;2023-10-08T01:34:17;100691.69;;;16.60;100.00
79645;BME280;69117;47.148;18.954;2023-10-08T01:37:20;100681.47;;;16.40;100.00
79645;BME280;69117;47.148;18.954;2023-10-08T01:40:23;100693.69;;;16.26;100.00
79645;BME280;69117;47.148;18.954;2023-10-08T01:43:24;100691.91;;;16.11;100.00
79645;BME280;69117;47.148;18.954;2023-10-08T01:46:28;100692.94;;;16.10;100.00
79645;BME280;69117;47.148;18.954;2023-10-08T01:49:33;100685.25;;;16.07;100.00
79645;BME280;69117;47.148;18.954;2023-10-08T01:52:35;100685.59;;;16.03;100.00
79645;BME280;69117;47.148;18.954;2023-10-08T01:55:36;100678.28;;;16.06;100.00
79645;BME280;69117;47.148;18.954;2023-10-08T01:58:48;100667.00;;;15.87;100.00
79645;BME280;69117;47.148;18.954;2023-10-08T02:01:50;100671.66;;;15.93;100.00
79645;BME280;69117;47.148;18.954;2023-10-08T02:04:57;100680.66;;;15.84;100.00
79645;BME280;69117;47.148;18.954;2023-10-08T02:07:58;100661.69;;;15.79;100.00
79645;BME280;69117;47.148;18.954;2023-10-08T02:11:00;100667.00;;;15.87;100.00
79645;BME280;69117;47.148;18.954;2023-10-08T02:14:04;100664.59;;;16.09;100.00
79645;BME280;69117;47.148;18.954;2023-10-08T02:17:06;100665.66;;;15.91;100.00
79645;BME280;69117;47.148;18.954;2023-10-08T02:20:08;100667.81;;;15.96;100.00
79645;BME280;69117;47.148;18.954;2023-10-08T02:23:10;100663.16;;;15.90;100.00
79645;BME280;69117;47.148;18.954;2023-10-08T02:26:13;100664.69;;;15.84;100.00
79645;BME280;69117;47.148;18.954;2023-10-08T02:29:16;100658.53;;;15.75;100.00
79645;BME280;69117;47.148;18.954;2023-10-08T02:32:17;100658.88;;;15.72;100.00
79645;BME280;69117;47.148;18.954;2023-10-08T02:35:20;100650.41;;;15.69;100.00
79645;BME280;69117;47.148;18.954;2023-10-08T02:38:24;100651.72;;;15.56;100.00
79645;BME280;69117;47.148;18.954;2023-10-08T02:41:25;100642.44;;;15.44;100.00
79645;BME280;69117;47.148;18.954;2023-10-08T02:44:27;100646.06;;;15.51;100.00
79645;BME280;69117;47.148;18.954;2023-10-08T02:47:29;100639.28;;;15.41;100.00
79645;BME280;69117;47.148;18.954;2023-10-08T02:50:31;100639.78;;;15.44;100.00
79645;BME280;69117;47.148;18.954;2023-10-08T02:53:34;100632.81;;;15.35;100.00
79645;BME280;69117;47.148;18.954;2023-10-08T02:56:36;100624.81;;;15.35;100.00
79645;BME280;69117;47.148;18.954;2023-10-08T02:59:40;100619.31;;;15.37;100.00
79645;BME280;69117;47.148;18.954;2023-10-08T03:02:43;100623.13;;;15.42;100.00
79645;BME280;69117;47.148;18.954;2023-10-08T03:05:53;100629.81;;;15.46;100.00
79645;BME280;69117;47.148;18.954;2023-10-08T03:08:58;100621.97;;;15.45;100.00
79645;BME280;69117;47.148;18.954;2023-10-08T03:12:06;100604.19;;;15.29;100.00
79645;BME280;69117;47.148;18.954;2023-10-08T03:15:10;100611.69;;;15.09;100.00
79645;BME280;69117;47.148;18.954;2023-10-08T03:18:15;100600.56;;;14.97;100.00
79645;BME280;69117;47.148;18.954;2023-10-08T03:21:16;100604.88;;;14.74;100.00
79645;BME280;69117;47.148;18.954;2023-10-08T03:24:25;100604.06;;;14.65;100.00
79645;BME280;69117;47.148;18.954;2023-10-08T03:27:38;100611.00;;;14.58;100.00
79645;BME280;69117;47.148;18.954;2023-10-08T03:30:43;100601.84;;;14.52;100.00
79645;BME280;69117;47.148;18.954;2023-10-08T03:33:52;100590.75;;;14.65;100.00
79645;BME280;69117;47.148;18.954;2023-10-08T03:36:53;100585.25;;;14.66;100.00
79645;BME280;69117;47.148;18.954;2023-10-08T03:40:07;100577.78;;;14.78;100.00
79645;BME280;69117;47.148;18.954;2023-10-08T03:43:25;100574.91;;;15.29;100.00
79645;BME280;69117;47.148;18.954;2023-10-08T03:46:36;100579.56;;;15.91;100.00
79645;BME280;69117;47.148;18.954;2023-10-08T03:49:49;100563.22;;;16.25;100.00
79645;BME280;69117;47.148;18.954;2023-10-08T03:52:52;100564.75;;;16.42;100.00
79645;BME280;69117;47.148;18.954;2023-10-08T03:55:56;100559.50;;;16.57;100.00
79645;BME280;69117;47.148;18.954;2023-10-08T03:59:02;100550.63;;;16.65;100.00
79645;BME280;69117;47.148;18.954;2023-10-08T04:02:31;100550.19;;;16.76;100.00
79645;BME280;69117;47.148;18.954;2023-10-08T04:05:42;100544.13;;;16.82;100.00
79645;BME280;69117;47.148;18.954;2023-10-08T04:09:17;100552.91;;;16.91;100.00
79645;BME280;69117;47.148;18.954;2023-10-08T04:12:22;100554.03;;;16.97;100.00
79645;BME280;69117;47.148;18.954;2023-10-08T04:15:23;100561.41;;;16.94;100.00
79645;BME280;69117;47.148;18.954;2023-10-08T04:18:25;100565.78;;;16.87;100.00
79645;BME280;69117;47.148;18.954;2023-10-08T04:21:28;100581.91;;;16.94;100.00
79645;BME280;69117;47.148;18.954;2023-10-08T04:24:30;100576.22;;;16.74;100.00
79645;BME280;69117;47.148;18.954;2023-10-08T04:27:37;100558.88;;;16.70;100.00
79645;BME280;69117;47.148;18.954;2023-10-08T04:30:39;100548.56;;;16.67;100.00
79645;BME280;69117;47.148;18.954;2023-10-08T04:33:43;100544.72;;;16.92;100.00
79645;BME280;69117;47.148;18.954;2023-10-08T04:36:46;100544.09;;;17.05;100.00
79645;BME280;69117;47.148;18.954;2023-10-08T04:39:47;100535.56;;;17.25;100.00
79645;BME280;69117;47.148;18.954;2023-10-08T04:42:58;100539.03;;;17.55;100.00
79645;BME280;69117;47.148;18.954;2023-10-08T04:46:03;100537.84;;;17.72;100.00
79645;BME280;69117;47.148;18.954;2023-10-08T04:49:21;100535.38;;;17.85;100.00
79645;BME280;69117;47.148;18.954;2023-10-08T04:52:31;100543.16;;;18.02;100.00
79645;BME280;69117;47.148;18.954;2023-10-08T04:55:36;100519.03;;;17.95;100.00
79645;BME280;69117;47.148;18.954;2023-10-08T04:58:43;100536.53;;;17.98;100.00
79645;BME280;69117;47.148;18.954;2023-10-08T05:01:48;100537.16;;;18.00;100.00
79645;BME280;69117;47.148;18.954;2023-10-08T05:04:50;100539.47;;;18.03;100.00
79645;BME280;69117;47.148;18.954;2023-10-08T05:07:58;100533.94;;;18.04;100.00
79645;BME280;69117;47.148;18.954;2023-10-08T05:11:02;100526.28;;;18.01;100.00
79645;BME280;69117;47.148;18.954;2023-10-08T05:14:21;100524.31;;;17.89;100.00
79645;BME280;69117;47.148;18.954;2023-10-08T05:17:32;100519.88;;;17.81;100.00
79645;BME280;69117;47.148;18.954;2023-10-08T05:20:47;100526.06;;;17.81;100.00
79645;BME280;69117;47.148;18.954;2023-10-08T05:23:52;100536.44;;;17.91;100.00
79645;BME280;69117;47.148;18.954;2023-10-08T05:27:15;100546.31;;;17.91;100.00
79645;BME280;69117;47.148;18.954;2023-10-08T05:30:36;100546.69;;;17.88;100.00
79645;BME280;69117;47.148;18.954;2023-10-08T05:33:38;100555.81;;;17.93;100.00
79645;BME280;69117;47.148;18.954;2023-10-08T05:36:59;100552.31;;;17.93;100.00
79645;BME280;69117;47.148;18.954;2023-10-08T05:40:00;100564.09;;;17.98;100.00
79645;BME280;69117;47.148;18.954;2023-10-08T05:43:14;100553.41;;;17.98;100.00
79645;BME280;69117;47.148;18.954;2023-10-08T05:46:35;100549.78;;;18.06;100.00
79645;BME280;69117;47.148;18.954;2023-10-08T05:49:52;100549.50;;;18.16;100.00
79645;BME280;69117;47.148;18.954;2023-10-08T05:53:12;100556.72;;;18.37;100.00
79645;BME280;69117;47.148;18.954;2023-10-08T05:56:21;100555.03;;;18.57;100.00
79645;BME280;69117;47.148;18.954;2023-10-08T05:59:44;100544.38;;;18.64;100.00
79645;BME280;69117;47.148;18.954;2023-10-08T06:02:59;100547.16;;;18.70;100.00
79645;BME280;69117;47.148;18.954;2023-10-08T06:06:23;100557.94;;;18.77;100.00
79645;BME280;69117;47.148;18.954;2023-10-08T06:09:27;100561.66;;;18.76;100.00
79645;BME280;69117;47.148;18.954;2023-10-08T06:12:39;100576.28;;;18.80;100.00
79645;BME280;69117;47.148;18.954;2023-10-08T06:15:51;100573.16;;;18.98;100.00
79645;BME280;69117;47.148;18.954;2023-10-08T06:18:53;100574.53;;;19.15;100.00
79645;BME280;69117;47.148;18.954;2023-10-08T06:21:55;100585.19;;;19.37;100.00
79645;BME280;69117;47.148;18.954;2023-10-08T06:24:57;100585.06;;;19.86;100.00
79645;BME280;69117;47.148;18.954;2023-10-08T06:28:18;100580.59;;;20.00;96.84
79645;BME280;69117;47.148;18.954;2023-10-08T06:31:23;100596.09;;;20.18;88.67
79645;BME280;69117;47.148;18.954;2023-10-08T06:34:26;100597.81;;;20.39;88.90
79645;BME280;69117;47.148;18.954;2023-10-08T06:37:29;100595.94;;;20.33;91.39
79645;BME280;69117;47.148;18.954;2023-10-08T06:40:35;100583.97;;;20.29;84.98
79645;BME280;69117;47.148;18.954;2023-10-08T06:43:37;100588.50;;;20.22;90.20
79645;BME280;69117;47.148;18.954;2023-10-08T06:46:39;100593.63;;;20.17;87.24
79645;BME280;69117;47.148;18.954;2023-10-08T06:49:42;100597.94;;;20.18;88.71
79645;BME280;69117;47.148;18.954;2023-10-08T06:52:45;100598.00;;;20.31;86.45
79645;BME280;69117;47.148;18.954;2023-10-08T06:55:46;100589.44;;;20.62;80.27
79645;BME280;69117;47.148;18.954;2023-10-08T06:58:49;100597.09;;;20.92;78.35
79645;BME280;69117;47.148;18.954;2023-10-08T07:01:54;100591.53;;;21.07;75.11
79645;BME280;69117;47.148;18.954;2023-10-08T07:04:56;100591.31;;;21.01;77.67
79645;BME280;69117;47.148;18.954;2023-10-08T07:07:58;100594.22;;;21.00;78.67
79645;BME280;69117;47.148;18.954;2023-10-08T07:11:01;100580.34;;;20.96;76.47
79645;BME280;69117;47.148;18.954;2023-10-08T07:14:06;100587.16;;;20.99;77.61
79645;BME280;69117;47.148;18.954;2023-10-08T07:17:12;100590.25;;;21.02;79.98
79645;BME280;69117;47.148;18.954;2023-10-08T07:20:21;100596.50;;;21.03;78.47
79645;BME280;69117;47.148;18.954;2023-10-08T07:23:24;100577.69;;;21.03;80.97
79645;BME280;69117;47.148;18.954;2023-10-08T07:26:30;100585.34;;;21.06;79.22
79645;BME280;69117;47.148;18.954;2023-10-08T07:29:42;100586.56;;;21.10;81.23
79645;BME280;69117;47.148;18.954;2023-10-08T07:32:48;100563.81;;;21.13;82.05
79645;BME280;69117;47.148;18.954;2023-10-08T07:35:52;100567.31;;;21.20;79.06
79645;BME280;69117;47.148;18.954;2023-10-08T07:39:14;100572.69;;;21.20;83.13
79645;BME280;69117;47.148;18.954;2023-10-08T07:42:33;100555.31;;;21.22;80.89
79645;BME280;69117;47.148;18.954;2023-10-08T07:45:35;100567.94;;;21.28;82.56
79645;BME280;69117;47.148;18.954;2023-10-08T07:48:37;100566.84;;;21.56;80.66
79645;BME280;69117;47.148;18.954;2023-10-08T07:51:44;100572.22;;;21.63;78.61
79645;BME280;69117;47.148;18.954;2023-10-08T07:54:52;100581.53;;;21.54;78.55
79645;BME280;69117;47.148;18.954;2023-10-08T07:57:54;100571.34;;;21.82;78.46
79645;BME280;69117;47.148;18.954;2023-10-08T08:00:56;100578.44;;;22.08;77.93
79645;BME280;69117;47.148;18.954;2023-10-08T08:03:58;100570.06;;;22.30;74.77
79645;BME280;69117;47.148;18.954;2023-10-08T08:06:59;100565.88;;;22.40;75.22
79645;BME280;69117;47.148;18.954;2023-10-08T08:10:03;100601.03;;;22.52;76.16
79645;BME280;69117;47.148;18.954;2023-10-08T08:13:12;100591.09;;;22.78;74.44
79645;BME280;69117;47.148;18.954;2023-10-08T08:16:21;100612.72;;;23.03;73.04
79645;BME280;69117;47.148;18.954;2023-10-08T08:19:23;100599.59;;;23.31;73.09
79645;BME280;69117;47.148;18.954;2023-10-08T08:22:25;100594.00;;;23.51;72.40
79645;BME280;69117;47.148;18.954;2023-10-08T08:25:40;100599.41;;;23.51;72.42
79645;BME280;69117;47.148;18.954;2023-10-08T08:28:58;100579.63;;;23.14;70.61
79645;BME280;69117;47.148;18.954;2023-10-08T08:32:01;100602.88;;;22.83;73.97
79645;BME280;69117;47.148;18.954;2023-10-08T08:35:07;100609.22;;;22.96;72.59
79645;BME280;69117;47.148;18.954;2023-10-08T08:38:09;100614.00;;;22.62;74.24
79645;BME280;69117;47.148;18.954;2023-10-08T08:41:11;100568.44;;;22.29;73.51
79645;BME280;69117;47.148;18.954;2023-10-08T08:44:13;100598.66;;;22.31;76.61
79645;BME280;69117;47.148;18.954;2023-10-08T08:47:16;100593.75;;;22.21;75.01
79645;BME280;69117;47.148;18.954;2023-10-08T08:50:20;100609.06;;;22.21;76.82
79645;BME280;69117;47.148;18.954;2023-10-08T08:53:27;100576.75;;;22.14;76.67
79645;BME280;69117;47.148;18.954;2023-10-08T08:56:31;100606.00;;;22.04;77.21
79645;BME280;69117;47.148;18.954;2023-10-08T08:59:34;100606.59;;;22.06;78.26
79645;BME280;69117;47.148;18.954;2023-10-08T09:02:38;100618.81;;;22.08;78.81
79645;BME280;69117;47.148;18.954;2023-10-08T09:05:40;100631.47;;;22.01;78.74
79645;BME280;69117;47.148;18.954;2023-10-08T09:08:43;100643.03;;;22.15;78.23
79645;BME280;69117;47.148;18.954;2023-10-08T09:11:49;100634.53;;;22.11;77.55
79645;BME280;69117;47.148;18.954;2023-10-08T09:15:00;100638.63;;;22.34;78.56
79645;BME280;69117;47.148;18.954;2023-10-08T09:18:04;100639.63;;;22.39;76.47
79645;BME280;69117;47.148;18.954;2023-10-08T09:21:08;100656.84;;;22.32;78.14
79645;BME280;69117;47.148;18.954;2023-10-08T09:24:18;100654.53;;;22.35;77.59
79645;BME280;69117;47.148;18.954;2023-10-08T09:27:20;100666.88;;;22.56;77.32
79645;BME280;69117;47.148;18.954;2023-10-08T09:30:23;100672.16;;;22.76;77.67
79645;BME280;69117;47.148;18.954;2023-10-08T09:33:28;100670.63;;;22.87;76.58
79645;BME280;69117;47.148;18.954;2023-10-08T09:36:31;100684.91;;;22.94;77.73
79645;BME280;69117;47.148;18.954;2023-10-08T09:39:34;100694.28;;;23.17;77.03
79645;BME280;69117;47.148;18.954;2023-10-08T09:42:37;100696.84;;;22.73;74.94
79645;BME280;69117;47.148;18.954;2023-10-08T09:45:42;100710.91;;;22.30;78.91
79645;BME280;69117;47.148;18.954;2023-10-08T09:48:49;100699.06;;;22.38;78.01
79645;BME280;69117;47.148;18.954;2023-10-08T09:51:53;100708.44;;;22.74;77.04
79645;BME280;69117;47.148;18.954;2023-10-08T09:55:00;100710.00;;;22.95;79.09
79645;BME280;69117;47.148;18.954;2023-10-08T09:58:05;100711.44;;;22.91;78.18
79645;BME280;69117;47.148;18.954;2023-10-08T10:01:08;100714.00;;;22.72;77.02
79645;BME280;69117;47.148;18.954;2023-10-08T10:04:11;100715.03;;;22.39;77.42
79645;BME280;69117;47.148;18.954;2023-10-08T10:07:15;100687.78;;;22.61;76.09
79645;BME280;69117;47.148;18.954;2023-10-08T10:10:28;100697.84;;;22.79;76.42
79645;BME280;69117;47.148;18.954;2023-10-08T10:14:00;100717.44;;;22.93;76.74
79645;BME280;69117;47.148;18.954;2023-10-08T10:17:15;100722.22;;;22.97;76.41
79645;BME280;69117;47.148;18.954;2023-10-08T10:20:44;100730.19;;;23.11;76.25
79645;BME280;69117;47.148;18.954;2023-10-08T10:23:48;100728.69;;;23.21;76.88
79645;BME280;69117;47.148;18.954;2023-10-08T10:27:09;100717.59;;;23.36;75.24
79645;BME280;69117;47.148;18.954;2023-10-08T10:30:12;100721.97;;;23.30;75.15
79645;BME280;69117;47.148;18.954;2023-10-08T10:33:30;100718.47;;;22.98;78.13
79645;BME280;69117;47.148;18.954;2023-10-08T10:36:33;100718.53;;;23.17;81.46
79645;BME280;69117;47.148;18.954;2023-10-08T10:39:35;100743.50;;;23.37;79.40
79645;BME280;69117;47.148;18.954;2023-10-08T10:42:41;100779.09;;;22.69;83.13
79645;BME280;69117;47.148;18.954;2023-10-08T10:45:48;100802.03;;;21.54;89.88
79645;BME280;69117;47.148;18.954;2023-10-08T10:48:50;100811.06;;;21.33;92.89
79645;BME280;69117;47.148;18.954;2023-10-08T10:52:10;100791.59;;;21.24;94.29
79645;BME280;69117;47.148;18.954;2023-10-08T10:55:19;100802.81;;;21.27;94.01
79645;BME280;69117;47.148;18.954;2023-10-08T10:58:33;100804.72;;;21.40;93.64
79645;BME280;69117;47.148;18.954;2023-10-08T11:01:40;100810.13;;;20.92;92.79
79645;BME280;69117;47.148;18.954;2023-10-08T11:04:51;100808.81;;;20.75;93.41
79645;BME280;69117;47.148;18.954;2023-10-08T11:07:53;100817.91;;;20.74;94.04
79645;BME280;69117;47.148;18.954;2023-10-08T11:10:56;100817.28;;;20.72;93.54
79645;BME280;69117;47.148;18.954;2023-10-08T11:14:00;100820.53;;;20.32;90.60
79645;BME280;69117;47.148;18.954;2023-10-08T11:20:26;100817.53;;;20.14;89.54
79645;BME280;69117;47.148;18.954;2023-10-08T11:23:32;100807.41;;;20.44;87.23
79645;BME280;69117;47.148;18.954;2023-10-08T11:26:36;100804.66;;;20.72;85.67
79645;BME280;69117;47.148;18.954;2023-10-08T11:29:48;100826.31;;;20.57;85.16
79645;BME280;69117;47.148;18.954;2023-10-08T11:32:58;100825.09;;;20.32;85.76
79645;BME280;69117;47.148;18.954;2023-10-08T11:36:03;100832.38;;;20.10;87.04
79645;BME280;69117;47.148;18.954;2023-10-08T11:39:10;100827.78;;;20.04;85.75
79645;BME280;69117;47.148;18.954;2023-10-08T11:42:13;100832.03;;;20.20;84.56
79645;BME280;69117;47.148;18.954;2023-10-08T11:45:45;100828.66;;;20.11;84.35
79645;BME280;69117;47.148;18.954;2023-10-08T11:48:49;100839.69;;;19.73;85.76
79645;BME280;69117;47.148;18.954;2023-10-08T11:51:52;100862.78;;;19.53;86.98
79645;BME280;69117;47.148;18.954;2023-10-08T11:54:53;100867.25;;;19.45;86.68
79645;BME280;69117;47.148;18.954;2023-10-08T11:57:55;100875.50;;;19.29;88.32
79645;BME280;69117;47.148;18.954;2023-10-08T12:00:58;100882.19;;;19.18;88.29
79645;BME280;69117;47.148;18.954;2023-10-08T12:04:05;100877.38;;;19.14;89.65
79645;BME280;69117;47.148;18.954;2023-10-08T12:07:15;100884.97;;;19.10;90.53
79645;BME280;69117;47.148;18.954;2023-10-08T12:10:19;100885.63;;;18.83;90.37
79645;BME280;69117;47.148;18.954;2023-10-08T12:13:24;100904.09;;;18.77;92.58
79645;BME280;69117;47.148;18.954;2023-10-08T12:16:30;100916.06;;;18.52;91.61
79645;BME280;69117;47.148;18.954;2023-10-08T12:19:39;100928.69;;;18.20;88.40
79645;BME280;69117;47.148;18.954;2023-10-08T12:22:41;100954.97;;;18.17;90.13
79645;BME280;69117;47.148;18.954;2023-10-08T12:25:43;100952.00;;;18.12;90.69
79645;BME280;69117;47.148;18.954;2023-10-08T12:28:54;100955.84;;;18.09;91.87
79645;BME280;69117;47.148;18.954;2023-10-08T12:31:56;100948.78;;;17.93;89.70
79645;BME280;69117;47.148;18.954;2023-10-08T12:35:01;100952.72;;;17.82;90.00
79645;BME280;69117;47.148;18.954;2023-10-08T12:38:02;100956.38;;;17.81;91.39
79645;BME280;69117;47.148;18.954;2023-10-08T12:41:10;100963.09;;;17.77;93.15
79645;BME280;69117;47.148;18.954;2023-10-08T12:44:15;100968.56;;;17.84;95.29
79645;BME280;69117;47.148;18.954;2023-10-08T12:47:17;100972.47;;;17.73;94.82
79645;BME280;69117;47.148;18.954;2023-10-08T12:50:24;100960.66;;;17.59;92.46
79645;BME280;69117;47.148;18.954;2023-10-08T12:53:43;100967.88;;;17.51;92.01
79645;BME280;69117;47.148;18.954;2023-10-08T12:56:52;100962.91;;;17.48;93.74
79645;BME280;69117;47.148;18.954;2023-10-08T12:59:56;100979.97;;;17.38;91.11
79645;BME280;69117;47.148;18.954;2023-10-08T13:02:58;100996.69;;;17.32;90.47
79645;BME280;69117;47.148;18.954;2023-10-08T13:06:03;100983.00;;;17.27;91.13
79645;BME280;69117;47.148;18.954;2023-10-08T13:09:07;101005.41;;;17.18;96.60
79645;BME280;69117;47.148;18.954;2023-10-08T13:12:14;101002.25;;;17.06;96.67
79645;BME280;69117;47.148;18.954;2023-10-08T13:15:18;101004.59;;;17.09;98.59
79645;BME280;69117;47.148;18.954;2023-10-08T13:18:20;101016.81;;;16.96;95.21
79645;BME280;69117;47.148;18.954;2023-10-08T13:21:22;101008.19;;;16.77;94.91
79645;BME280;69117;47.148;18.954;2023-10-08T13:24:26;101024.81;;;16.71;97.91
79645;BME280;69117;47.148;18.954;2023-10-08T13:27:30;101028.50;;;16.78;97.82
79645;BME280;69117;47.148;18.954;2023-10-08T13:30:32;101016.13;;;16.61;94.99
79645;BME280;69117;47.148;18.954;2023-10-08T13:33:34;101031.31;;;16.68;97.64
79645;BME280;69117;47.148;18.954;2023-10-08T13:36:36;101020.00;;;16.58;97.86
79645;BME280;69117;47.148;18.954;2023-10-08T13:39:42;101032.50;;;16.49;97.06
79645;BME280;69117;47.148;18.954;2023-10-08T13:42:50;101037.50;;;16.44;94.32
79645;BME280;69117;47.148;18.954;2023-10-08T13:45:53;101043.47;;;16.22;92.88
79645;BME280;69117;47.148;18.954;2023-10-08T13:48:55;101045.47;;;16.20;92.38
79645;BME280;69117;47.148;18.954;2023-10-08T13:51:59;101043.59;;;16.12;93.25
79645;BME280;69117;47.148;18.954;2023-10-08T13:55:01;101058.09;;;16.01;93.06
79645;BME280;69117;47.148;18.954;2023-10-08T13:58:05;101055.25;;;15.95;93.54
79645;BME280;69117;47.148;18.954;2023-10-08T14:01:09;101045.56;;;15.86;92.62
79645;BME280;69117;47.148;18.954;2023-10-08T14:04:22;101057.38;;;15.83;94.67
79645;BME280;69117;47.148;18.954;2023-10-08T14:07:32;101056.50;;;15.74;95.62
79645;BME280;69117;47.148;18.954;2023-10-08T14:10:34;101053.31;;;15.71;96.54
79645;BME280;69117;47.148;18.954;2023-10-08T14:13:37;101052.94;;;15.66;96.91
79645;BME280;69117;47.148;18.954;2023-10-08T14:16:39;101064.22;;;15.60;96.92
79645;BME280;69117;47.148;18.954;2023-10-08T14:19:43;101063.03;;;15.54;97.25
79645;BME280;69117;47.148;18.954;2023-10-08T14:22:48;101074.19;;;15.57;98.68
79645;BME280;69117;47.148;18.954;2023-10-08T14:25:58;101052.22;;;15.55;100.00
79645;BME280;69117;47.148;18.954;2023-10-08T14:29:05;101050.88;;;15.51;100.00
79645;BME280;69117;47.148;18.954;2023-10-08T14:32:12;101058.66;;;15.45;100.00
79645;BME280;69117;47.148;18.954;2023-10-08T14:35:13;101061.06;;;15.30;100.00
79645;BME280;69117;47.148;18.954;2023-10-08T14:38:34;101060.88;;;15.23;100.00
79645;BME280;69117;47.148;18.954;2023-10-08T14:41:54;101081.03;;;15.26;99.31
79645;BME280;69117;47.148;18.954;2023-10-08T14:45:15;101062.00;;;15.21;98.35
79645;BME280;69117;47.148;18.954;2023-10-08T14:48:20;101073.34;;;15.23;99.80
79645;BME280;69117;47.148;18.954;2023-10-08T14:51:24;101087.59;;;15.14;98.34
79645;BME280;69117;47.148;18.954;2023-10-08T14:54:27;101094.69;;;15.05;97.50
79645;BME280;69117;47.148;18.954;2023-10-08T14:57:29;101113.47;;;15.03;98.08
79645;BME280;69117;47.148;18.954;2023-10-08T15:00:31;101105.13;;;14.98;97.79
79645;BME280;69117;47.148;18.954;2023-10-08T15:03:33;101117.59;;;14.98;97.33
79645;BME280;69117;47.148;18.954;2023-10-08T15:06:38;101114.69;;;14.91;96.87
79645;BME280;69117;47.148;18.954;2023-10-08T15:09:40;101105.50;;;14.85;100.00
79645;BME280;69117;47.148;18.954;2023-10-08T15:12:43;101108.63;;;14.81;100.00
79645;BME280;69117;47.148;18.954;2023-10-08T15:15:44;101118.28;;;14.82;100.00
79645;BME280;69117;47.148;18.954;2023-10-08T15:18:47;101104.84;;;14.83;98.13
79645;BME280;69117;47.148;18.954;2023-10-08T15:21:49;101103.91;;;14.75;100.00
79645;BME280;69117;47.148;18.954;2023-10-08T15:24:53;101120.88;;;14.74;100.00
79645;BME280;69117;47.148;18.954;2023-10-08T15:27:56;101121.03;;;14.72;100.00
79645;BME280;69117;47.148;18.954;2023-10-08T15:30:57;101140.34;;;14.74;100.00
79645;BME280;69117;47.148;18.954;2023-10-08T15:33:59;101136.06;;;14.63;99.60
79645;BME280;69117;47.148;18.954;2023-10-08T15:37:01;101133.88;;;14.59;99.87
79645;BME280;69117;47.148;18.954;2023-10-08T15:40:03;101146.06;;;14.52;96.75
79645;BME280;69117;47.148;18.954;2023-10-08T15:43:07;101157.81;;;14.49;98.45
79645;BME280;69117;47.148;18.954;2023-10-08T15:46:09;101168.09;;;14.44;99.39
79645;BME280;69117;47.148;18.954;2023-10-08T15:49:11;101175.47;;;14.50;98.75
79645;BME280;69117;47.148;18.954;2023-10-08T15:52:14;101172.00;;;14.40;98.73
79645;BME280;69117;47.148;18.954;2023-10-08T15:55:17;101173.16;;;14.37;98.79
79645;BME280;69117;47.148;18.954;2023-10-08T15:58:23;101190.00;;;14.28;99.13